Time;durP1;ratioP1;P1;durP2;ratioP2;P2;SDS_P1;SDS_P2;PMS_P1;PMS_P2;Temp;Humidity;BMP_temperature;BMP_pressure;BME280_temperature;BME280_humidity;BME280_pressure;Samples;Min_cycle;Max_cycle;Signal;HPM_P1;HPM_P2
2024/03/08 00:00:33;;;;;;;10.33;7.53;;;3.70;99.90;;;;;;5014028;28;20582;-71
2024/03/08 00:03:00;;;;;;;2.57;2.37;;;3.70;99.90;;;;;;5009778;28;22210;-71
2024/03/08 00:05:28;;;;;;;8.73;5.67;;;3.60;99.90;;;;;;5011265;28;20469;-71
2024/03/08 00:07:54;;;;;;;12.30;7.17;;;3.60;99.90;;;;;;5014899;28;20522;-71
2024/03/08 00:10:21;;;;;;;4.30;2.67;;;3.60;99.90;;;;;;5011318;28;20477;-71
2024/03/08 00:12:48;;;;;;;1.57;1.23;;;3.60;99.90;;;;;;5015256;28;20865;-71
2024/03/08 00:15:16;;;;;;;12.13;4.53;;;3.60;99.90;;;;;;5018344;28;20785;-71
2024/03/08 00:17:45;;;;;;;3.33;2.53;;;3.60;99.90;;;;;;5008821;28;20862;-71
2024/03/08 00:20:13;;;;;;;6.57;4.73;;;3.50;99.90;;;;;;5010037;28;20595;-72
2024/03/08 00:22:40;;;;;;;13.70;6.90;;;3.50;99.90;;;;;;5010457;28;20480;-70
2024/03/08 00:25:09;;;;;;;11.63;5.30;;;3.50;99.90;;;;;;5013630;28;20589;-72
2024/03/08 00:27:36;;;;;;;6.47;3.87;;;3.50;99.90;;;;;;5007277;28;20543;-71
2024/03/08 00:30:04;;;;;;;2.90;2.57;;;3.50;99.90;;;;;;5011813;28;20873;-71
2024/03/08 00:32:31;;;;;;;9.40;4.40;;;3.40;99.90;;;;;;5008865;28;20435;-71
2024/03/08 00:34:59;;;;;;;3.43;3.13;;;3.40;99.90;;;;;;5014404;28;20465;-71
2024/03/08 00:37:26;;;;;;;7.00;4.53;;;3.40;99.90;;;;;;5009709;28;20476;-71
2024/03/08 00:39:53;;;;;;;2.53;2.33;;;3.30;99.90;;;;;;5012511;28;20457;-71
2024/03/08 00:42:21;;;;;;;12.40;2.90;;;3.30;99.90;;;;;;5007429;28;20471;-71
2024/03/08 00:44:50;;;;;;;7.43;2.90;;;3.30;99.90;;;;;;5009126;28;22005;-71
2024/03/08 00:47:17;;;;;;;7.90;3.53;;;3.30;99.90;;;;;;5014782;28;20483;-70
2024/03/08 00:49:44;;;;;;;6.47;5.80;;;3.30;99.90;;;;;;5011156;28;20490;-71
2024/03/08 00:52:12;;;;;;;5.30;3.57;;;3.20;99.90;;;;;;5012096;28;20818;-71
2024/03/08 00:54:39;;;;;;;12.83;6.33;;;3.20;99.90;;;;;;5014093;28;20464;-71
2024/03/08 00:57:06;;;;;;;9.17;5.27;;;3.20;99.90;;;;;;5013958;28;20567;-70
2024/03/08 00:59:33;;;;;;;10.00;4.73;;;3.10;99.90;;;;;;5016973;28;20477;-70
2024/03/08 01:02:00;;;;;;;5.67;4.03;;;3.10;99.90;;;;;;5016473;28;20541;-70
2024/03/08 01:04:28;;;;;;;13.77;7.27;;;3.10;99.90;;;;;;5015506;28;20440;-70
2024/03/08 01:06:56;;;;;;;3.80;3.47;;;3.10;99.90;;;;;;5009804;28;20461;-70
2024/03/08 01:09:24;;;;;;;2.97;2.77;;;3.10;99.90;;;;;;5013400;28;20510;-70
2024/03/08 01:11:50;;;;;;;1.97;1.83;;;3.00;99.90;;;;;;5012033;28;20844;-70
2024/03/08 01:14:18;;;;;;;7.40;3.67;;;3.00;99.90;;;;;;5013829;28;20439;-70
2024/03/08 01:16:44;;;;;;;9.50;6.77;;;3.00;99.90;;;;;;5017881;28;20454;-71
2024/03/08 01:19:11;;;;;;;7.50;5.27;;;2.90;99.90;;;;;;5013744;28;20987;-70
2024/03/08 01:21:38;;;;;;;8.83;5.07;;;2.90;99.90;;;;;;5011949;28;20471;-71
2024/03/08 01:24:05;;;;;;;5.50;4.80;;;2.90;99.90;;;;;;5001449;28;20446;-70
2024/03/08 01:26:34;;;;;;;5.97;4.57;;;2.90;99.90;;;;;;5011355;28;20434;-71
2024/03/08 01:29:01;;;;;;;4.40;1.93;;;2.80;99.90;;;;;;5006974;28;20466;-71
2024/03/08 01:31:28;;;;;;;4.20;3.60;;;2.80;99.90;;;;;;5012500;28;21405;-71
2024/03/08 01:33:55;;;;;;;1.87;1.77;;;2.80;99.90;;;;;;5014871;28;20588;-70
2024/03/08 01:36:22;;;;;;;9.43;3.17;;;2.80;99.90;;;;;;5009390;28;20534;-71
2024/03/08 01:38:49;;;;;;;6.97;3.83;;;2.80;99.90;;;;;;5013083;28;20457;-71
2024/03/08 01:41:17;;;;;;;2.73;2.53;;;2.70;99.90;;;;;;5010986;28;20526;-71
2024/03/08 01:43:50;;;;;;;5.13;4.67;;;2.70;99.90;;;;;;5009410;28;20480;-71
2024/03/08 01:46:21;;;;;;;13.40;6.57;;;2.70;99.90;;;;;;5005223;28;20431;-70
2024/03/08 01:48:48;;;;;;;6.73;4.93;;;2.70;99.90;;;;;;5000245;28;20538;-71
2024/03/08 01:51:15;;;;;;;10.40;5.00;;;2.70;99.90;;;;;;5005762;28;20457;-71
2024/03/08 01:53:45;;;;;;;3.13;2.93;;;2.70;99.90;;;;;;5008224;28;20541;-71
2024/03/08 01:56:13;;;;;;;7.90;3.27;;;2.60;99.90;;;;;;5010316;28;20486;-70
2024/03/08 01:58:43;;;;;;;5.50;3.37;;;2.60;99.90;;;;;;5014803;28;20480;-71
2024/03/08 02:01:12;;;;;;;16.97;2.40;;;2.60;99.90;;;;;;5016475;28;21001;-70
2024/03/08 02:03:39;;;;;;;9.70;6.30;;;2.60;99.90;;;;;;5004647;28;21061;-71
2024/03/08 02:06:09;;;;;;;3.30;2.40;;;2.60;99.90;;;;;;5008934;28;20460;-70
2024/03/08 02:08:36;;;;;;;8.47;7.70;;;2.60;99.90;;;;;;5015508;28;20439;-71
2024/03/08 02:11:04;;;;;;;5.93;4.07;;;2.60;99.90;;;;;;5008416;28;20442;-70
2024/03/08 02:13:31;;;;;;;9.33;4.53;;;2.60;99.90;;;;;;5007567;28;20558;-71
2024/03/08 02:16:00;;;;;;;5.47;4.00;;;2.60;99.90;;;;;;5011395;28;20446;-72
2024/03/08 02:18:29;;;;;;;4.03;3.70;;;2.60;99.90;;;;;;5010523;28;20459;-70
2024/03/08 02:20:58;;;;;;;3.63;3.33;;;2.60;99.90;;;;;;5010073;28;20436;-70
2024/03/08 02:23:25;;;;;;;8.13;4.97;;;2.60;99.90;;;;;;5005087;28;20460;-70
2024/03/08 02:25:53;;;;;;;17.90;10.97;;;2.60;99.90;;;;;;5005063;28;20457;-70
2024/03/08 02:28:20;;;;;;;7.13;5.47;;;2.50;99.90;;;;;;5012238;28;20559;-71
2024/03/08 02:30:47;;;;;;;5.57;4.37;;;2.60;99.90;;;;;;5012937;28;20593;-70
2024/03/08 02:33:16;;;;;;;13.80;4.20;;;2.60;99.90;;;;;;5007519;28;20972;-70
2024/03/08 02:35:45;;;;;;;2.40;1.97;;;2.60;99.90;;;;;;5018282;28;20448;-70
2024/03/08 02:38:16;;;;;;;6.27;2.87;;;2.50;99.90;;;;;;5010361;28;20463;-70
2024/03/08 02:40:42;;;;;;;7.50;4.67;;;2.50;99.90;;;;;;5012019;28;20462;-70
2024/03/08 02:43:13;;;;;;;7.90;5.20;;;2.50;99.90;;;;;;5002605;28;20451;-72
2024/03/08 02:45:40;;;;;;;6.43;5.93;;;2.50;99.90;;;;;;5009589;28;20465;-71
2024/03/08 02:48:07;;;;;;;6.50;3.40;;;2.50;99.90;;;;;;5011482;28;20435;-70
2024/03/08 02:50:36;;;;;;;3.10;2.90;;;2.50;99.90;;;;;;5003408;28;20542;-72
2024/03/08 02:53:03;;;;;;;4.90;4.27;;;2.40;99.90;;;;;;5007154;28;20448;-70
2024/03/08 02:55:31;;;;;;;1.20;1.10;;;2.40;99.90;;;;;;5009928;28;20439;-70
2024/03/08 02:58:00;;;;;;;6.07;4.67;;;2.40;99.90;;;;;;5009681;28;20486;-72
2024/03/08 03:00:28;;;;;;;2.90;2.57;;;2.40;99.90;;;;;;5015361;28;20466;-71
2024/03/08 03:02:54;;;;;;;6.93;4.20;;;2.40;99.90;;;;;;5013962;28;20480;-70
2024/03/08 03:05:21;;;;;;;11.20;5.73;;;2.30;99.90;;;;;;5013569;28;21026;-70
2024/03/08 03:07:48;;;;;;;5.47;4.03;;;2.30;99.90;;;;;;5013135;28;20460;-72
2024/03/08 03:10:16;;;;;;;6.00;1.90;;;2.30;99.90;;;;;;5009602;28;20864;-70
2024/03/08 03:12:45;;;;;;;7.67;5.47;;;2.30;99.90;;;;;;5013087;28;20456;-70
2024/03/08 03:15:12;;;;;;;9.40;6.63;;;2.30;99.90;;;;;;5014787;28;20456;-71
2024/03/08 03:17:39;;;;;;;12.03;9.03;;;2.30;99.90;;;;;;5013812;28;20546;-71
2024/03/08 03:20:10;;;;;;;6.30;4.10;;;2.20;99.90;;;;;;5017063;28;20494;-71
2024/03/08 03:22:38;;;;;;;2.90;2.80;;;2.20;99.90;;;;;;5007760;28;20962;-70
2024/03/08 03:25:06;;;;;;;6.73;4.60;;;2.20;99.90;;;;;;5011138;28;20551;-70
2024/03/08 03:27:33;;;;;;;10.47;4.90;;;2.20;99.90;;;;;;5009621;28;20438;-71
2024/03/08 03:30:20;;;;;;;3.37;2.47;;;2.20;99.90;;;;;;5009779;28;20476;-71
2024/03/08 03:32:47;;;;;;;3.30;3.03;;;2.20;99.90;;;;;;5008730;28;20447;-71
2024/03/08 03:35:15;;;;;;;10.67;6.37;;;2.10;99.90;;;;;;5007508;28;20488;-70
2024/03/08 03:37:42;;;;;;;4.50;4.10;;;2.10;99.90;;;;;;5011691;28;20474;-70
2024/03/08 03:40:10;;;;;;;7.83;7.10;;;2.10;99.90;;;;;;5015064;28;20571;-70
2024/03/08 03:42:38;;;;;;;10.53;3.40;;;2.10;99.90;;;;;;5004834;28;20468;-71
2024/03/08 03:45:09;;;;;;;6.10;3.77;;;2.10;99.90;;;;;;5001965;28;20479;-70
2024/03/08 03:47:37;;;;;;;8.70;4.60;;;2.10;99.90;;;;;;5015016;28;20533;-71
2024/03/08 03:50:05;;;;;;;3.13;2.30;;;2.10;99.90;;;;;;5001726;28;20477;-71
2024/03/08 03:52:32;;;;;;;34.77;5.90;;;2.10;99.90;;;;;;5010834;28;20480;-71
2024/03/08 03:54:59;;;;;;;6.20;4.30;;;2.20;99.90;;;;;;5008204;28;20492;-71
2024/03/08 03:57:26;;;;;;;10.63;5.33;;;2.10;99.90;;;;;;5006754;28;20438;-71
2024/03/08 03:59:53;;;;;;;10.23;6.37;;;2.10;99.90;;;;;;5010391;28;20550;-71
2024/03/08 04:02:21;;;;;;;11.57;6.80;;;2.10;99.90;;;;;;5013148;28;20456;-70
2024/03/08 04:04:48;;;;;;;7.33;4.50;;;2.10;99.90;;;;;;5008193;28;20453;-71
2024/03/08 04:07:15;;;;;;;14.80;6.43;;;2.10;99.90;;;;;;5006526;28;20900;-71
2024/03/08 04:09:42;;;;;;;13.40;6.97;;;2.20;99.90;;;;;;5000708;28;21123;-71
2024/03/08 04:12:09;;;;;;;22.40;4.77;;;2.10;99.90;;;;;;4993278;28;20469;-70
2024/03/08 04:14:39;;;;;;;6.77;2.97;;;2.20;99.90;;;;;;4997464;28;20440;-70
2024/03/08 04:17:06;;;;;;;5.33;3.33;;;2.10;99.90;;;;;;5000522;28;20464;-70
2024/03/08 04:19:34;;;;;;;6.40;4.43;;;2.10;99.90;;;;;;4994189;28;21068;-71
2024/03/08 04:22:02;;;;;;;2.87;2.30;;;2.10;99.90;;;;;;4994238;28;20441;-71
2024/03/08 04:24:30;;;;;;;3.80;2.90;;;2.10;99.90;;;;;;5001877;28;21106;-70
2024/03/08 04:26:57;;;;;;;8.20;5.87;;;2.00;99.90;;;;;;5006601;28;20546;-71
2024/03/08 04:29:24;;;;;;;6.20;1.63;;;2.10;99.90;;;;;;5002735;28;20553;-71
2024/03/08 04:31:54;;;;;;;9.57;6.40;;;2.10;99.90;;;;;;4997033;28;20434;-70
2024/03/08 04:34:20;;;;;;;13.40;6.37;;;2.10;99.90;;;;;;4997790;28;20464;-70
2024/03/08 04:36:48;;;;;;;7.40;5.20;;;2.00;99.90;;;;;;5009398;28;21283;-70
2024/03/08 04:39:15;;;;;;;9.93;5.17;;;2.00;99.90;;;;;;5005170;28;20517;-70
2024/03/08 04:41:43;;;;;;;8.20;5.40;;;2.10;99.90;;;;;;5011268;28;20510;-70
2024/03/08 04:44:10;;;;;;;7.80;6.00;;;2.10;99.90;;;;;;5012239;28;20442;-71
2024/03/08 04:46:38;;;;;;;6.53;5.20;;;2.10;99.90;;;;;;5009977;28;20470;-70
2024/03/08 04:49:07;;;;;;;12.17;7.17;;;2.10;99.90;;;;;;5018226;28;20568;-71
2024/03/08 04:51:33;;;;;;;2.90;2.57;;;2.00;99.90;;;;;;5017921;28;20442;-71
2024/03/08 04:54:02;;;;;;;6.97;3.17;;;2.00;99.90;;;;;;5006621;28;20524;-71
2024/03/08 04:56:29;;;;;;;12.57;4.90;;;2.00;99.90;;;;;;5013098;28;20431;-71
2024/03/08 04:58:56;;;;;;;4.57;2.80;;;1.90;99.90;;;;;;5017598;28;20492;-70
2024/03/08 05:01:23;;;;;;;2.83;2.63;;;1.90;99.90;;;;;;5015176;28;20848;-70
2024/03/08 05:03:50;;;;;;;8.27;4.13;;;1.90;99.90;;;;;;5012579;28;20436;-70
2024/03/08 05:06:18;;;;;;;4.00;3.70;;;1.80;99.90;;;;;;5017789;28;20466;-70
2024/03/08 05:08:44;;;;;;;4.90;4.47;;;1.90;99.90;;;;;;5012617;28;20463;-70
2024/03/08 05:11:14;;;;;;;4.27;3.57;;;1.80;99.90;;;;;;5014143;28;20439;-71
2024/03/08 05:13:41;;;;;;;5.77;4.03;;;1.80;99.90;;;;;;5007376;28;20540;-71
2024/03/08 05:16:08;;;;;;;1.37;1.27;;;1.80;99.90;;;;;;5010498;28;21287;-71
2024/03/08 05:18:36;;;;;;;3.33;3.03;;;1.70;99.90;;;;;;5015296;28;20918;-70
2024/03/08 05:21:03;;;;;;;4.83;4.50;;;1.70;99.90;;;;;;5008433;28;20443;-71
2024/03/08 05:23:30;;;;;;;4.40;3.83;;;1.70;99.90;;;;;;5011321;28;20445;-71
2024/03/08 05:25:57;;;;;;;6.03;4.50;;;1.70;99.90;;;;;;5011328;28;20452;-71
2024/03/08 05:28:25;;;;;;;2.73;2.53;;;1.70;99.90;;;;;;5016289;28;20936;-71
2024/03/08 05:30:52;;;;;;;3.07;2.73;;;1.70;99.90;;;;;;4993876;28;20472;-71
2024/03/08 05:33:19;;;;;;;10.20;4.20;;;1.70;99.90;;;;;;5014264;28;20463;-72
2024/03/08 05:35:46;;;;;;;15.13;7.43;;;1.80;99.90;;;;;;5010025;28;20542;-71
2024/03/08 05:38:12;;;;;;;9.37;4.43;;;1.70;99.90;;;;;;4997540;28;20455;-71
2024/03/08 05:40:39;;;;;;;3.80;2.10;;;1.60;99.90;;;;;;5014976;28;20454;-71
2024/03/08 05:43:06;;;;;;;8.23;6.50;;;1.60;99.90;;;;;;5012095;28;20461;-72
2024/03/08 05:45:34;;;;;;;5.57;4.50;;;1.60;99.90;;;;;;5016163;28;20534;-72
2024/03/08 05:48:01;;;;;;;6.10;5.27;;;1.60;99.90;;;;;;5015192;28;20450;-72
2024/03/08 05:50:28;;;;;;;9.63;3.80;;;1.60;99.90;;;;;;5019511;28;20538;-71
2024/03/08 05:52:55;;;;;;;6.60;4.77;;;1.60;99.90;;;;;;5008196;28;20513;-71
2024/03/08 05:55:24;;;;;;;3.33;2.60;;;1.60;99.90;;;;;;5015024;28;20478;-71
2024/03/08 05:57:53;;;;;;;6.20;5.47;;;1.60;99.90;;;;;;5015283;28;20461;-72
2024/03/08 06:00:22;;;;;;;6.10;5.50;;;1.60;99.90;;;;;;5013245;28;20585;-71
2024/03/08 06:02:50;;;;;;;17.03;6.57;;;1.60;99.90;;;;;;5013442;28;20471;-72
2024/03/08 06:05:17;;;;;;;8.80;4.93;;;1.50;99.90;;;;;;5013317;28;20464;-71
2024/03/08 06:07:44;;;;;;;3.63;2.70;;;1.50;99.90;;;;;;5018408;28;20430;-71
2024/03/08 06:10:12;;;;;;;4.13;2.73;;;1.50;99.90;;;;;;5017195;28;20455;-70
2024/03/08 06:12:41;;;;;;;8.33;5.60;;;1.60;99.90;;;;;;5019643;28;20475;-70
2024/03/08 06:15:09;;;;;;;10.00;5.77;;;1.60;99.90;;;;;;5014173;28;20432;-70
2024/03/08 06:17:36;;;;;;;20.00;8.60;;;1.60;99.90;;;;;;5011705;28;20435;-70
2024/03/08 06:20:10;;;;;;;7.17;4.87;;;1.60;99.90;;;;;;5017818;28;20496;-71
2024/03/08 06:22:37;;;;;;;8.53;7.20;;;1.60;99.90;;;;;;5007310;28;20464;-71
2024/03/08 06:25:04;;;;;;;5.80;4.63;;;1.60;99.90;;;;;;5019507;28;20439;-72
2024/03/08 06:27:33;;;;;;;4.60;2.13;;;1.60;99.90;;;;;;5017081;28;20471;-72
2024/03/08 06:30:00;;;;;;;3.33;3.03;;;1.70;99.90;;;;;;5013948;28;20476;-71
2024/03/08 06:32:27;;;;;;;11.30;5.80;;;1.70;99.90;;;;;;5009447;28;20440;-71
2024/03/08 06:34:54;;;;;;;6.53;5.50;;;1.70;99.90;;;;;;5016821;28;20464;-71
2024/03/08 06:37:23;;;;;;;11.57;5.60;;;1.80;99.90;;;;;;5014380;28;20464;-72
2024/03/08 06:39:51;;;;;;;22.20;8.47;;;1.80;99.90;;;;;;5016376;28;20459;-72
2024/03/08 06:42:18;;;;;;;6.80;4.43;;;2.00;99.90;;;;;;5006888;28;20465;-72
2024/03/08 06:44:49;;;;;;;5.13;4.43;;;2.10;99.90;;;;;;5015839;28;20943;-71
2024/03/08 06:47:16;;;;;;;4.17;3.87;;;2.20;99.90;;;;;;5015928;28;20770;-71
2024/03/08 06:49:43;;;;;;;14.83;8.80;;;2.30;99.90;;;;;;5015733;28;20587;-71
2024/03/08 06:52:10;;;;;;;11.87;4.03;;;2.30;99.90;;;;;;5013247;28;20474;-71
2024/03/08 06:54:38;;;;;;;7.70;6.90;;;2.30;99.90;;;;;;5014117;28;20428;-70
2024/03/08 06:57:05;;;;;;;6.40;3.57;;;2.40;99.90;;;;;;5016055;28;20445;-71
2024/03/08 06:59:32;;;;;;;16.03;8.07;;;2.50;99.90;;;;;;5018401;28;20556;-72
2024/03/08 07:02:00;;;;;;;13.50;7.83;;;2.70;99.90;;;;;;5013395;28;20446;-72
2024/03/08 07:04:29;;;;;;;6.90;6.17;;;2.70;99.90;;;;;;5015613;28;20430;-71
2024/03/08 07:06:57;;;;;;;12.43;6.07;;;2.80;99.90;;;;;;5013496;28;20467;-71
2024/03/08 07:09:24;;;;;;;10.90;5.87;;;2.70;99.90;;;;;;5016086;28;20466;-73
2024/03/08 07:11:54;;;;;;;17.23;8.03;;;2.80;99.90;;;;;;5015420;28;20443;-72
2024/03/08 07:14:22;;;;;;;8.73;7.67;;;2.70;99.90;;;;;;5014783;28;20432;-72
2024/03/08 07:16:48;;;;;;;6.83;6.17;;;2.70;99.90;;;;;;5016392;28;20468;-72
2024/03/08 07:19:15;;;;;;;7.20;3.47;;;2.70;99.90;;;;;;5013949;28;20464;-72
2024/03/08 07:21:42;;;;;;;18.40;8.30;;;2.70;99.90;;;;;;5009971;28;20876;-73
2024/03/08 07:24:24;;;;;;;11.40;7.13;;;2.80;99.90;;;;;;5013491;28;20484;-72
2024/03/08 07:26:52;;;;;;;8.13;6.23;;;2.80;99.90;;;;;;5010192;28;20453;-73
2024/03/08 07:29:19;;;;;;;7.60;6.07;;;2.90;99.90;;;;;;5012328;28;20453;-73
2024/03/08 07:31:55;;;;;;;7.10;5.60;;;2.90;99.90;;;;;;5004901;28;20965;-72
2024/03/08 07:34:22;;;;;;;10.60;6.77;;;3.00;99.90;;;;;;5014361;28;20578;-71
2024/03/08 07:36:50;;;;;;;16.47;9.17;;;3.20;99.90;;;;;;5008678;28;20435;-72
2024/03/08 07:39:18;;;;;;;11.37;7.93;;;3.30;99.90;;;;;;5009760;28;20915;-73
2024/03/08 07:41:45;;;;;;;12.00;6.03;;;3.50;99.90;;;;;;5019657;28;20442;-72
2024/03/08 07:44:14;;;;;;;34.27;7.90;;;3.70;99.90;;;;;;5009613;28;20950;-72
2024/03/08 07:46:41;;;;;;;7.37;3.23;;;3.80;99.90;;;;;;5006897;28;20455;-72
2024/03/08 07:49:10;;;;;;;6.10;4.70;;;4.00;99.90;;;;;;5018452;28;20957;-73
2024/03/08 07:51:37;;;;;;;5.93;3.60;;;4.20;99.90;;;;;;5013039;28;20530;-72
2024/03/08 07:54:04;;;;;;;11.90;8.70;;;4.30;99.90;;;;;;5010863;28;20468;-73
2024/03/08 07:56:31;;;;;;;5.90;5.50;;;4.40;99.90;;;;;;5008958;28;20463;-73
2024/03/08 07:58:58;;;;;;;5.33;4.83;;;4.50;99.90;;;;;;5010696;28;20492;-72
2024/03/08 08:01:26;;;;;;;17.17;8.20;;;4.60;99.90;;;;;;5007863;28;20770;-72
2024/03/08 08:03:52;;;;;;;4.20;3.80;;;5.00;99.90;;;;;;5008245;28;20439;-72
2024/03/08 08:06:19;;;;;;;4.87;3.00;;;5.30;99.90;;;;;;5008889;28;20468;-71
2024/03/08 08:08:46;;;;;;;9.57;7.40;;;5.70;99.90;;;;;;5015859;28;20517;-72
2024/03/08 08:11:13;;;;;;;10.07;6.23;;;5.80;99.90;;;;;;5018034;28;20471;-72
2024/03/08 08:13:39;;;;;;;6.90;5.83;;;6.10;99.90;;;;;;5009980;28;20457;-72
2024/03/08 08:16:07;;;;;;;13.47;6.20;;;6.20;99.90;;;;;;5017249;28;20487;-71
2024/03/08 08:18:36;;;;;;;8.13;6.20;;;6.30;99.90;;;;;;5020899;28;20479;-72
2024/03/08 08:21:02;;;;;;;12.83;8.20;;;6.60;99.90;;;;;;5013789;28;20520;-72
2024/03/08 08:23:29;;;;;;;4.87;4.27;;;6.80;99.90;;;;;;5011877;28;20476;-72
2024/03/08 08:25:56;;;;;;;15.37;9.77;;;7.00;99.90;;;;;;5017358;28;20943;-72
2024/03/08 08:28:24;;;;;;;12.40;7.50;;;7.30;99.90;;;;;;5015666;28;21193;-73
2024/03/08 08:30:51;;;;;;;25.67;5.37;;;7.50;99.90;;;;;;5019603;28;20982;-72
2024/03/08 08:33:18;;;;;;;13.13;5.27;;;7.90;99.90;;;;;;5015978;28;20464;-73
2024/03/08 08:35:47;;;;;;;9.43;2.57;;;7.80;99.90;;;;;;5012618;28;20898;-73
2024/03/08 08:38:14;;;;;;;11.40;7.73;;;8.00;99.90;;;;;;5017146;28;21186;-72
2024/03/08 08:40:41;;;;;;;13.37;6.23;;;8.70;99.90;;;;;;5015993;28;20524;-73
2024/03/08 08:43:08;;;;;;;15.27;8.93;;;9.10;99.90;;;;;;5005713;28;20531;-73
2024/03/08 08:45:36;;;;;;;16.60;9.83;;;9.00;99.90;;;;;;5006761;28;20551;-72
2024/03/08 08:48:03;;;;;;;19.03;9.80;;;9.50;99.90;;;;;;5018752;28;20472;-73
2024/03/08 08:50:30;;;;;;;14.50;8.77;;;10.40;99.90;;;;;;5015343;28;20485;-73
2024/03/08 08:52:59;;;;;;;17.60;8.00;;;10.70;99.90;;;;;;5013680;28;20479;-73
2024/03/08 08:55:26;;;;;;;12.87;7.27;;;10.70;99.90;;;;;;5009023;28;20456;-72
2024/03/08 08:57:53;;;;;;;16.13;9.17;;;10.60;99.90;;;;;;5012458;28;20460;-74
2024/03/08 09:00:21;;;;;;;27.77;12.37;;;11.00;99.90;;;;;;5015744;28;20528;-72
2024/03/08 09:02:48;;;;;;;16.23;11.33;;;11.40;99.90;;;;;;5015817;28;20476;-72
2024/03/08 09:05:16;;;;;;;18.00;8.47;;;11.80;99.90;;;;;;5018119;28;20457;-72
2024/03/08 09:07:45;;;;;;;10.07;6.57;;;11.80;99.90;;;;;;5014014;28;20955;-72
2024/03/08 09:10:14;;;;;;;18.37;9.17;;;11.50;99.90;;;;;;5018722;28;20476;-73
2024/03/08 09:12:42;;;;;;;9.63;6.87;;;11.50;99.90;;;;;;5012744;28;20948;-72
2024/03/08 09:15:10;;;;;;;9.77;7.43;;;11.90;99.90;;;;;;5019408;28;20505;-72
2024/03/08 09:17:39;;;;;;;16.23;9.63;;;11.10;99.90;;;;;;5016296;28;20465;-73
2024/03/08 09:20:07;;;;;;;11.93;7.50;;;11.30;99.90;;;;;;5017468;28;20587;-72
2024/03/08 09:22:34;;;;;;;19.83;9.20;;;11.50;99.90;;;;;;5020502;28;20506;-73
2024/03/08 09:25:05;;;;;;;9.60;7.33;;;11.90;99.90;;;;;;5019595;28;20475;-72
2024/03/08 09:27:33;;;;;;;11.03;8.30;;;12.50;99.90;;;;;;5010488;28;20456;-72
2024/03/08 09:30:01;;;;;;;19.40;10.90;;;12.30;99.90;;;;;;5010141;28;20574;-73
2024/03/08 09:32:28;;;;;;;10.40;7.60;;;13.00;99.90;;;;;;5004904;28;20953;-72
2024/03/08 09:34:56;;;;;;;9.60;8.27;;;13.20;99.90;;;;;;5017893;28;20487;-71
2024/03/08 09:37:22;;;;;;;14.70;8.50;;;13.00;99.90;;;;;;5017138;28;21002;-72
2024/03/08 09:39:49;;;;;;;15.27;10.27;;;12.90;99.90;;;;;;5013371;28;21018;-72
2024/03/08 09:42:17;;;;;;;24.63;12.23;;;12.70;99.90;;;;;;5013465;28;20476;-73
2024/03/08 09:44:47;;;;;;;18.30;10.50;;;13.30;99.90;;;;;;5016599;28;20464;-72
2024/03/08 09:47:14;;;;;;;7.70;5.23;;;13.40;99.90;;;;;;5014234;28;20456;-72
2024/03/08 09:49:43;;;;;;;17.63;9.90;;;13.50;99.90;;;;;;5012090;28;20575;-72
2024/03/08 09:52:12;;;;;;;12.37;9.60;;;13.90;99.90;;;;;;5012683;28;20495;-72
2024/03/08 09:54:40;;;;;;;17.10;9.40;;;14.70;99.40;;;;;;5014958;28;21663;-73
2024/03/08 09:57:09;;;;;;;22.20;13.17;;;14.30;98.60;;;;;;5012421;28;20460;-72
2024/03/08 09:59:46;;;;;;;11.33;6.10;;;14.30;99.10;;;;;;5014337;28;20500;-72
2024/03/08 10:02:16;;;;;;;18.77;8.70;;;14.70;98.30;;;;;;5011096;28;21027;-72
2024/03/08 10:04:43;;;;;;;11.73;6.20;;;13.90;98.10;;;;;;5010678;28;20488;-73
2024/03/08 10:07:10;;;;;;;16.97;4.63;;;13.80;97.60;;;;;;5008279;28;20476;-73
2024/03/08 10:09:37;;;;;;;10.40;7.37;;;14.10;98.00;;;;;;5013775;28;20479;-73
2024/03/08 10:12:06;;;;;;;16.00;9.27;;;13.70;97.70;;;;;;5012284;28;20475;-73
2024/03/08 10:14:33;;;;;;;16.00;6.03;;;13.80;98.10;;;;;;5019264;28;20453;-73
2024/03/08 10:17:00;;;;;;;11.20;5.97;;;13.70;96.80;;;;;;5013083;28;20539;-73
2024/03/08 10:19:29;;;;;;;13.57;6.70;;;13.70;97.70;;;;;;5013170;28;20508;-73
2024/03/08 10:21:58;;;;;;;11.47;6.30;;;14.70;97.20;;;;;;5017834;28;21029;-72
2024/03/08 10:24:25;;;;;;;10.43;7.63;;;14.70;96.10;;;;;;5014221;28;20568;-72
2024/03/08 10:26:54;;;;;;;13.70;9.33;;;14.30;95.80;;;;;;5014891;28;20959;-73
2024/03/08 10:29:20;;;;;;;23.63;12.07;;;14.40;96.90;;;;;;5005939;28;20562;-72
2024/03/08 10:31:47;;;;;;;23.70;6.50;;;15.20;96.80;;;;;;5002655;28;20460;-72
2024/03/08 10:34:14;;;;;;;18.97;11.23;;;15.60;94.60;;;;;;5009460;28;20465;-73
2024/03/08 10:36:42;;;;;;;16.83;10.20;;;15.90;94.40;;;;;;5013396;28;20549;-72
2024/03/08 10:39:24;;;;;;;12.13;5.40;;;15.80;94.40;;;;;;5015498;28;20488;-72
2024/03/08 10:41:57;;;;;;;28.43;9.60;;;15.30;93.70;;;;;;5013397;28;20463;-72
2024/03/08 10:44:41;;;;;;;14.97;9.43;;;15.10;94.50;;;;;;5011798;28;20516;-73
2024/03/08 10:47:17;;;;;;;14.87;9.70;;;14.90;94.20;;;;;;5013048;28;20464;-72
2024/03/08 10:49:53;;;;;;;18.93;11.47;;;14.80;94.30;;;;;;5017172;28;20472;-73
2024/03/08 10:52:22;;;;;;;14.73;9.60;;;15.50;93.60;;;;;;5015234;28;21165;-73
2024/03/08 10:54:50;;;;;;;6.70;4.97;;;15.60;93.30;;;;;;5017364;28;20461;-72
2024/03/08 10:57:20;;;;;;;9.07;6.67;;;15.40;93.50;;;;;;5013427;28;20515;-73
2024/03/08 10:59:49;;;;;;;4.50;2.97;;;14.90;93.40;;;;;;5019827;28;20492;-73
2024/03/08 11:02:18;;;;;;;14.03;9.00;;;14.50;93.80;;;;;;5017070;28;21267;-73
2024/03/08 11:04:49;;;;;;;12.50;7.80;;;14.80;94.30;;;;;;5014538;28;20449;-72
2024/03/08 11:07:19;;;;;;;14.23;9.53;;;15.60;94.00;;;;;;5017661;28;20502;-72
2024/03/08 11:09:48;;;;;;;15.77;10.20;;;15.90;92.80;;;;;;5019001;28;20571;-72
2024/03/08 11:12:29;;;;;;;13.27;6.90;;;16.10;92.50;;;;;;5014435;28;20749;-73
2024/03/08 11:14:56;;;;;;;16.70;9.83;;;15.90;92.10;;;;;;5018239;28;20468;-73
2024/03/08 11:17:42;;;;;;;15.03;10.63;;;16.10;92.30;;;;;;5013493;28;20461;-73
2024/03/08 11:20:16;;;;;;;15.73;11.73;;;16.80;92.10;;;;;;5008333;28;20496;-73
2024/03/08 11:22:48;;;;;;;8.33;4.60;;;16.80;91.70;;;;;;5015556;28;20992;-73
2024/03/08 11:25:39;;;;;;;9.37;6.10;;;16.50;91.40;;;;;;5013721;28;20464;-73
2024/03/08 11:28:23;;;;;;;13.10;7.03;;;16.00;91.40;;;;;;5015154;28;20478;-73
2024/03/08 11:31:23;;;;;;;13.40;9.30;;;16.30;92.00;;;;;;5007461;28;20484;-71
2024/03/08 11:33:53;;;;;;;10.37;6.67;;;16.40;91.90;;;;;;5010398;28;20477;-72
2024/03/08 11:36:22;;;;;;;20.00;11.33;;;16.90;91.60;;;;;;5017287;28;20466;-72
2024/03/08 11:38:55;;;;;;;26.33;9.60;;;16.30;91.40;;;;;;5016423;28;20800;-72
2024/03/08 11:41:24;;;;;;;9.30;7.53;;;16.00;91.10;;;;;;5010605;28;20488;-71
2024/03/08 11:44:05;;;;;;;13.53;8.27;;;16.50;91.20;;;;;;5011278;28;20461;-72
2024/03/08 11:46:31;;;;;;;8.57;4.67;;;16.70;91.30;;;;;;5009347;28;20525;-72
2024/03/08 11:48:58;;;;;;;5.23;4.73;;;17.10;89.70;;;;;;5011510;28;20472;-72
2024/03/08 11:51:25;;;;;;;10.83;7.60;;;16.70;90.40;;;;;;5013781;28;20483;-73
2024/03/08 11:53:52;;;;;;;16.30;8.70;;;16.70;91.50;;;;;;5016082;28;20575;-73
2024/03/08 11:56:20;;;;;;;16.13;9.83;;;16.80;90.80;;;;;;5009323;28;20475;-73
2024/03/08 12:12:11;;;;;;;13.97;10.20;;;17.90;90.30;;;;;;5117686;27;21016;-71
2024/03/08 12:14:38;;;;;;;8.20;6.17;;;17.70;89.60;;;;;;5115901;27;20513;-72
2024/03/08 12:17:05;;;;;;;14.47;9.00;;;18.00;87.50;;;;;;5115824;27;20954;-73
2024/03/08 12:19:33;;;;;;;11.10;7.50;;;18.00;86.50;;;;;;5113784;27;20516;-73
2024/03/08 12:22:10;;;;;;;10.87;7.63;;;18.10;88.00;;;;;;5115162;27;20496;-72
2024/03/08 12:24:37;;;;;;;16.23;6.10;;;19.50;84.20;;;;;;5110257;27;20935;-73
2024/03/08 12:27:20;;;;;;;8.57;6.23;;;18.40;82.90;;;;;;5104836;27;20580;-73
2024/03/08 12:29:47;;;;;;;5.10;4.60;;;18.50;83.80;;;;;;5114920;27;20537;-73
2024/03/08 12:32:13;;;;;;;6.10;4.20;;;18.50;83.40;;;;;;5106305;27;20861;-72
2024/03/08 12:34:41;;;;;;;13.40;4.50;;;17.50;78.30;;;;;;5107794;27;20475;-72
2024/03/08 12:37:09;;;;;;;4.23;3.40;;;16.90;78.40;;;;;;5116508;27;20460;-71
2024/03/08 12:39:37;;;;;;;2.13;1.93;;;17.10;79.00;;;;;;5109570;27;20477;-72
2024/03/08 12:42:04;;;;;;;6.13;5.53;;;17.50;77.20;;;;;;5114919;27;20457;-70
2024/03/08 12:44:32;;;;;;;8.70;5.63;;;18.00;80.30;;;;;;5106440;27;22125;-72
2024/03/08 12:46:59;;;;;;;6.43;4.70;;;18.00;78.10;;;;;;5114873;27;21078;-72
2024/03/08 12:49:27;;;;;;;7.23;5.30;;;17.90;80.10;;;;;;5119233;27;20477;-72
2024/03/08 12:51:53;;;;;;;9.70;7.23;;;18.70;80.60;;;;;;5121937;27;20464;-71
2024/03/08 12:54:24;;;;;;;6.93;6.20;;;18.30;78.60;;;;;;5120427;27;20448;-71
2024/03/08 12:56:53;;;;;;;7.83;4.67;;;17.20;79.10;;;;;;5124820;27;20464;-73
2024/03/08 12:59:21;;;;;;;9.93;5.37;;;16.90;81.60;;;;;;5118195;27;20486;-72
2024/03/08 13:01:51;;;;;;;14.10;7.70;;;17.20;80.50;;;;;;5118493;27;20559;-71
2024/03/08 13:04:21;;;;;;;7.77;4.33;;;17.40;81.00;;;;;;5121771;27;20463;-72
2024/03/08 13:06:49;;;;;;;10.03;6.90;;;17.00;79.70;;;;;;5130130;27;20959;-72